Terminal Aerodrome Forecast
Issued by NWS

Home | Current Version | Previous Version | Text Only | Print | Product List | Glossary On
Versions: 1 2 3 4 5 6 7 8 9 10 11 12 13 14
000
FTUS45 KVEF 170300 AAB
TAFHND
TAF AMD
KHND 170355Z 1704/1724 17020G30KT P6SM SCT110 BKN250
     FM170430 17010KT P6SM SCT110 BKN250
     FM171400 VRB05KT P6SM SCT100
     FM171900 09007KT P6SM FEW080 SCT100=

USA.gov is the U.S. government's official web portal to all federal, state and local government web resources and services.